sensor_id;sensor_type;location;lat;lon;timestamp;pressure;altitude;pressure_sealevel;temperature;humidity
49945;BME280;35838;49.134;9.212;2022-08-25T21:12:07;99479.25;;;25.10;48.66
49945;BME280;35838;49.134;9.212;2022-08-25T21:13:41;99487.84;;;25.00;48.50
49945;BME280;35838;49.134;9.212;2022-08-25T21:15:15;99492.53;;;24.97;48.91
49945;BME280;35838;49.134;9.212;2022-08-25T21:16:51;99487.25;;;24.84;49.82
49945;BME280;35838;49.134;9.212;2022-08-25T21:18:25;99485.66;;;24.81;49.52
49945;BME280;35838;49.134;9.212;2022-08-25T21:19:59;99495.13;;;24.73;49.84
49945;BME280;35838;49.134;9.212;2022-08-25T21:21:33;99491.09;;;24.80;50.03
49945;BME280;35838;49.134;9.212;2022-08-25T21:23:07;99495.31;;;24.82;49.81
49945;BME280;35838;49.134;9.212;2022-08-25T21:24:41;99504.69;;;24.75;49.90
49945;BME280;35838;49.134;9.212;2022-08-25T21:26:17;99496.41;;;24.80;50.16
49945;BME280;35838;49.134;9.212;2022-08-25T21:27:54;99499.56;;;24.85;50.13
49945;BME280;35838;49.134;9.212;2022-08-25T21:29:28;99499.69;;;24.70;50.38
49945;BME280;35838;49.134;9.212;2022-08-25T21:31:04;99505.59;;;24.48;51.19
49945;BME280;35838;49.134;9.212;2022-08-25T21:32:38;99507.19;;;24.51;50.68
49945;BME280;35838;49.134;9.212;2022-08-25T21:34:14;99503.25;;;24.56;50.95
49945;BME280;35838;49.134;9.212;2022-08-25T21:35:48;99506.56;;;24.60;50.72
49945;BME280;35838;49.134;9.212;2022-08-25T21:37:23;99502.53;;;24.67;50.85
49945;BME280;35838;49.134;9.212;2022-08-25T21:38:58;99508.88;;;24.65;50.43
49945;BME280;35838;49.134;9.212;2022-08-25T21:40:33;99504.41;;;24.65;50.50
49945;BME280;35838;49.134;9.212;2022-08-25T21:42:08;99507.84;;;24.67;50.29
49945;BME280;35838;49.134;9.212;2022-08-25T21:43:46;99503.69;;;24.63;50.60
49945;BME280;35838;49.134;9.212;2022-08-25T21:45:20;99514.00;;;24.55;50.75
49945;BME280;35838;49.134;9.212;2022-08-25T21:46:54;99512.19;;;24.55;50.44
49945;BME280;35838;49.134;9.212;2022-08-25T21:48:28;99509.41;;;24.57;51.03
49945;BME280;35838;49.134;9.212;2022-08-25T21:50:03;99515.03;;;24.52;51.14
49945;BME280;35838;49.134;9.212;2022-08-25T21:51:41;99513.31;;;24.51;51.59
49945;BME280;35838;49.134;9.212;2022-08-25T21:53:15;99511.84;;;24.47;51.07
49945;BME280;35838;49.134;9.212;2022-08-25T21:54:49;99512.16;;;24.43;51.05
49945;BME280;35838;49.134;9.212;2022-08-25T21:56:23;99519.06;;;24.45;50.97
49945;BME280;35838;49.134;9.212;2022-08-25T21:57:54;99514.06;;;24.40;50.86
49945;BME280;35838;49.134;9.212;2022-08-25T21:59:34;99507.63;;;24.45;50.33
49945;BME280;35838;49.134;9.212;2022-08-25T22:01:12;99510.59;;;24.40;50.98
49945;BME280;35838;49.134;9.212;2022-08-25T22:02:46;99509.50;;;24.43;51.25
49945;BME280;35838;49.134;9.212;2022-08-25T22:04:20;99512.91;;;24.45;50.72
49945;BME280;35838;49.134;9.212;2022-08-25T22:05:54;99508.00;;;24.38;50.58
49945;BME280;35838;49.134;9.212;2022-08-25T22:07:28;99513.63;;;24.34;51.12
49945;BME280;35838;49.134;9.212;2022-08-25T22:09:03;99510.34;;;24.30;50.84
49945;BME280;35838;49.134;9.212;2022-08-25T22:10:41;99508.31;;;24.21;51.27
49945;BME280;35838;49.134;9.212;2022-08-25T22:12:16;99508.22;;;24.22;51.38
49945;BME280;35838;49.134;9.212;2022-08-25T22:13:50;99505.66;;;24.21;51.16
49945;BME280;35838;49.134;9.212;2022-08-25T22:15:28;99510.94;;;24.21;51.29
49945;BME280;35838;49.134;9.212;2022-08-25T22:17:02;99507.78;;;24.16;51.21
49945;BME280;35838;49.134;9.212;2022-08-25T22:18:36;99504.38;;;24.14;51.32
49945;BME280;35838;49.134;9.212;2022-08-25T22:20:11;99512.13;;;24.17;51.17
49945;BME280;35838;49.134;9.212;2022-08-25T22:21:45;99506.94;;;24.15;51.52
49945;BME280;35838;49.134;9.212;2022-08-25T22:23:19;99516.16;;;24.09;51.79
49945;BME280;35838;49.134;9.212;2022-08-25T22:24:54;99511.16;;;24.05;51.81
49945;BME280;35838;49.134;9.212;2022-08-25T22:26:29;99511.75;;;23.96;52.48
49945;BME280;35838;49.134;9.212;2022-08-25T22:28:04;99512.59;;;23.96;52.39
49945;BME280;35838;49.134;9.212;2022-08-25T22:29:38;99505.22;;;24.01;52.34
49945;BME280;35838;49.134;9.212;2022-08-25T22:31:16;99510.28;;;24.04;52.33
49945;BME280;35838;49.134;9.212;2022-08-25T22:32:50;99507.75;;;24.03;52.36
49945;BME280;35838;49.134;9.212;2022-08-25T22:34:24;99513.41;;;23.84;52.73
49945;BME280;35838;49.134;9.212;2022-08-25T22:35:58;99501.81;;;23.85;52.82
49945;BME280;35838;49.134;9.212;2022-08-25T22:37:33;99503.31;;;23.89;52.79
49945;BME280;35838;49.134;9.212;2022-08-25T22:39:08;99504.16;;;23.89;53.27
49945;BME280;35838;49.134;9.212;2022-08-25T22:40:42;99509.19;;;23.94;52.87
49945;BME280;35838;49.134;9.212;2022-08-25T22:42:16;99505.78;;;23.92;52.97
49945;BME280;35838;49.134;9.212;2022-08-25T22:43:51;99507.88;;;23.87;53.25
49945;BME280;35838;49.134;9.212;2022-08-25T22:45:25;99512.13;;;23.89;53.32
49945;BME280;35838;49.134;9.212;2022-08-25T22:47:02;99508.75;;;23.87;53.69
49945;BME280;35838;49.134;9.212;2022-08-25T22:48:36;99507.78;;;23.88;53.33
49945;BME280;35838;49.134;9.212;2022-08-25T22:50:11;99504.47;;;23.85;53.38
49945;BME280;35838;49.134;9.212;2022-08-25T22:51:45;99504.47;;;23.85;53.47
49945;BME280;35838;49.134;9.212;2022-08-25T22:53:20;99515.28;;;23.82;53.57
49945;BME280;35838;49.134;9.212;2022-08-25T22:54:54;99511.22;;;23.76;53.75
49945;BME280;35838;49.134;9.212;2022-08-25T22:56:29;99518.44;;;23.74;54.03
49945;BME280;35838;49.134;9.212;2022-08-25T22:58:04;99510.78;;;23.69;54.16
49945;BME280;35838;49.134;9.212;2022-08-25T22:59:38;99509.19;;;23.67;54.02
49945;BME280;35838;49.134;9.212;2022-08-25T23:01:13;99507.13;;;23.57;54.24
49945;BME280;35838;49.134;9.212;2022-08-25T23:02:50;99506.19;;;23.58;53.51
49945;BME280;35838;49.134;9.212;2022-08-25T23:04:24;99502.88;;;23.55;53.57
49945;BME280;35838;49.134;9.212;2022-08-25T23:05:58;99497.59;;;23.55;53.46
49945;BME280;35838;49.134;9.212;2022-08-25T23:07:34;99501.59;;;23.47;54.14
49945;BME280;35838;49.134;9.212;2022-08-25T23:09:09;99496.66;;;23.41;54.17
49945;BME280;35838;49.134;9.212;2022-08-25T23:10:47;99494.25;;;23.24;54.47
49945;BME280;35838;49.134;9.212;2022-08-25T23:12:21;99495.56;;;23.31;54.24
49945;BME280;35838;49.134;9.212;2022-08-25T23:13:57;99497.94;;;23.36;54.28
49945;BME280;35838;49.134;9.212;2022-08-25T23:15:35;99496.13;;;23.36;54.18
49945;BME280;35838;49.134;9.212;2022-08-25T23:17:09;99493.47;;;23.36;54.27
49945;BME280;35838;49.134;9.212;2022-08-25T23:18:46;99496.00;;;23.38;54.51
49945;BME280;35838;49.134;9.212;2022-08-25T23:20:20;99489.22;;;23.34;54.49
49945;BME280;35838;49.134;9.212;2022-08-25T23:22:21;99492.81;;;23.33;54.59
49945;BME280;35838;49.134;9.212;2022-08-25T23:23:55;99493.66;;;23.33;54.84
49945;BME280;35838;49.134;9.212;2022-08-25T23:25:26;99494.53;;;23.34;54.64
49945;BME280;35838;49.134;9.212;2022-08-25T23:27:02;99495.75;;;23.28;55.12
49945;BME280;35838;49.134;9.212;2022-08-25T23:28:36;99494.06;;;23.27;54.93
49945;BME280;35838;49.134;9.212;2022-08-25T23:30:12;99499.53;;;23.24;55.03
49945;BME280;35838;49.134;9.212;2022-08-25T23:31:47;99502.09;;;23.25;54.93
49945;BME280;35838;49.134;9.212;2022-08-25T23:33:21;99496.88;;;23.24;55.25
49945;BME280;35838;49.134;9.212;2022-08-25T23:34:55;99497.88;;;23.23;54.98
49945;BME280;35838;49.134;9.212;2022-08-25T23:36:29;99489.94;;;23.23;54.89
49945;BME280;35838;49.134;9.212;2022-08-25T23:38:01;99489.06;;;23.22;54.98
49945;BME280;35838;49.134;9.212;2022-08-25T23:39:35;99494.47;;;23.21;55.41
49945;BME280;35838;49.134;9.212;2022-08-25T23:41:12;99491.69;;;23.22;55.28
49945;BME280;35838;49.134;9.212;2022-08-25T23:42:47;99490.88;;;23.22;54.98
49945;BME280;35838;49.134;9.212;2022-08-25T23:44:22;99483.66;;;23.24;55.15
49945;BME280;35838;49.134;9.212;2022-08-25T23:45:56;99487.47;;;23.20;54.94
49945;BME280;35838;49.134;9.212;2022-08-25T23:47:30;99484.97;;;23.16;55.05
49945;BME280;35838;49.134;9.212;2022-08-25T23:49:07;99485.25;;;23.12;55.41
49945;BME280;35838;49.134;9.212;2022-08-25T23:50:45;99490.75;;;23.09;55.52
49945;BME280;35838;49.134;9.212;2022-08-25T23:52:19;99487.06;;;23.11;55.69
49945;BME280;35838;49.134;9.212;2022-08-25T23:53:55;99484.41;;;23.11;55.19
49945;BME280;35838;49.134;9.212;2022-08-25T23:55:29;99486.31;;;23.09;55.25
49945;BME280;35838;49.134;9.212;2022-08-25T23:57:03;99479.31;;;23.08;55.30
49945;BME280;35838;49.134;9.212;2022-08-25T23:58:37;99489.13;;;23.06;55.42
